sensor_id;sensor_type;location;lat;lon;timestamp;temperature;humidity
30134;DHT22;16946;49.984;10.672;2023-12-07T00:00:05;3.40;99.90
30134;DHT22;16946;49.984;10.672;2023-12-07T00:00:35;3.30;99.90
30134;DHT22;16946;49.984;10.672;2023-12-07T00:01:06;3.30;99.90
30134;DHT22;16946;49.984;10.672;2023-12-07T00:01:37;3.20;99.90
30134;DHT22;16946;49.984;10.672;2023-12-07T00:02:07;3.20;99.90
30134;DHT22;16946;49.984;10.672;2023-12-07T00:02:38;3.20;99.90
30134;DHT22;16946;49.984;10.672;2023-12-07T00:03:08;3.20;99.90
30134;DHT22;16946;49.984;10.672;2023-12-07T00:03:39;3.20;99.90
30134;DHT22;16946;49.984;10.672;2023-12-07T00:04:09;3.20;99.90
30134;DHT22;16946;49.984;10.672;2023-12-07T00:04:40;3.20;99.90
30134;DHT22;16946;49.984;10.672;2023-12-07T00:05:10;3.20;99.90
30134;DHT22;16946;49.984;10.672;2023-12-07T00:05:41;3.20;99.90
30134;DHT22;16946;49.984;10.672;2023-12-07T00:06:12;3.10;99.90
30134;DHT22;16946;49.984;10.672;2023-12-07T00:06:42;3.10;99.90
30134;DHT22;16946;49.984;10.672;2023-12-07T00:07:13;3.10;99.90
30134;DHT22;16946;49.984;10.672;2023-12-07T00:07:43;3.10;99.90
30134;DHT22;16946;49.984;10.672;2023-12-07T00:08:14;3.10;99.90
30134;DHT22;16946;49.984;10.672;2023-12-07T00:08:44;3.10;99.90
30134;DHT22;16946;49.984;10.672;2023-12-07T00:09:15;3.10;99.90
30134;DHT22;16946;49.984;10.672;2023-12-07T00:09:45;3.10;99.90
30134;DHT22;16946;49.984;10.672;2023-12-07T00:10:16;3.20;99.90
30134;DHT22;16946;49.984;10.672;2023-12-07T00:10:46;3.20;99.90
30134;DHT22;16946;49.984;10.672;2023-12-07T00:11:17;3.20;99.90
30134;DHT22;16946;49.984;10.672;2023-12-07T00:11:47;3.30;99.90
30134;DHT22;16946;49.984;10.672;2023-12-07T00:12:18;3.30;99.90
30134;DHT22;16946;49.984;10.672;2023-12-07T00:12:48;3.40;99.90
30134;DHT22;16946;49.984;10.672;2023-12-07T00:13:19;3.40;99.90
30134;DHT22;16946;49.984;10.672;2023-12-07T00:13:50;3.40;99.90
30134;DHT22;16946;49.984;10.672;2023-12-07T00:14:20;3.40;99.90
30134;DHT22;16946;49.984;10.672;2023-12-07T00:14:51;3.50;99.90
30134;DHT22;16946;49.984;10.672;2023-12-07T00:15:21;3.50;99.90
30134;DHT22;16946;49.984;10.672;2023-12-07T00:15:52;3.50;99.90
30134;DHT22;16946;49.984;10.672;2023-12-07T00:16:22;3.40;99.90
30134;DHT22;16946;49.984;10.672;2023-12-07T00:16:53;3.40;99.90
30134;DHT22;16946;49.984;10.672;2023-12-07T00:17:24;3.40;99.90
30134;DHT22;16946;49.984;10.672;2023-12-07T00:17:55;3.40;99.90
30134;DHT22;16946;49.984;10.672;2023-12-07T00:18:25;3.40;99.90
30134;DHT22;16946;49.984;10.672;2023-12-07T00:18:56;3.40;99.90
30134;DHT22;16946;49.984;10.672;2023-12-07T00:19:26;3.40;99.90
30134;DHT22;16946;49.984;10.672;2023-12-07T00:19:57;3.40;99.90
30134;DHT22;16946;49.984;10.672;2023-12-07T00:20:27;3.40;99.90
30134;DHT22;16946;49.984;10.672;2023-12-07T00:20:58;3.50;99.90
30134;DHT22;16946;49.984;10.672;2023-12-07T00:21:28;3.50;99.90
30134;DHT22;16946;49.984;10.672;2023-12-07T00:21:59;3.60;99.90
30134;DHT22;16946;49.984;10.672;2023-12-07T00:22:30;3.60;99.90
30134;DHT22;16946;49.984;10.672;2023-12-07T00:23:00;3.60;99.90
30134;DHT22;16946;49.984;10.672;2023-12-07T00:23:31;3.60;99.90
30134;DHT22;16946;49.984;10.672;2023-12-07T00:24:01;3.50;99.90
30134;DHT22;16946;49.984;10.672;2023-12-07T00:24:33;3.50;99.90
30134;DHT22;16946;49.984;10.672;2023-12-07T00:25:04;3.50;99.90
30134;DHT22;16946;49.984;10.672;2023-12-07T00:25:34;3.50;99.90
30134;DHT22;16946;49.984;10.672;2023-12-07T00:26:05;3.40;99.90
30134;DHT22;16946;49.984;10.672;2023-12-07T00:26:35;3.40;99.90
30134;DHT22;16946;49.984;10.672;2023-12-07T00:27:06;3.40;99.90
30134;DHT22;16946;49.984;10.672;2023-12-07T00:27:36;3.30;99.90
30134;DHT22;16946;49.984;10.672;2023-12-07T00:28:07;3.30;99.90
30134;DHT22;16946;49.984;10.672;2023-12-07T00:28:38;3.30;99.90
30134;DHT22;16946;49.984;10.672;2023-12-07T00:29:08;3.30;99.90
30134;DHT22;16946;49.984;10.672;2023-12-07T00:29:38;3.30;99.90
30134;DHT22;16946;49.984;10.672;2023-12-07T00:30:09;3.30;99.90
30134;DHT22;16946;49.984;10.672;2023-12-07T00:30:40;3.30;99.90
30134;DHT22;16946;49.984;10.672;2023-12-07T00:31:12;3.30;99.90
30134;DHT22;16946;49.984;10.672;2023-12-07T00:31:43;3.20;99.90
30134;DHT22;16946;49.984;10.672;2023-12-07T00:32:14;3.20;99.90
30134;DHT22;16946;49.984;10.672;2023-12-07T00:32:44;3.10;99.90
30134;DHT22;16946;49.984;10.672;2023-12-07T00:33:16;3.10;99.90
30134;DHT22;16946;49.984;10.672;2023-12-07T00:33:47;3.10;99.90
30134;DHT22;16946;49.984;10.672;2023-12-07T00:34:17;3.10;99.90
30134;DHT22;16946;49.984;10.672;2023-12-07T00:34:48;3.10;99.90
30134;DHT22;16946;49.984;10.672;2023-12-07T00:35:19;3.10;99.90
30134;DHT22;16946;49.984;10.672;2023-12-07T00:35:52;3.10;99.90
30134;DHT22;16946;49.984;10.672;2023-12-07T00:36:23;3.10;99.90
30134;DHT22;16946;49.984;10.672;2023-12-07T00:36:53;3.10;99.90
30134;DHT22;16946;49.984;10.672;2023-12-07T00:37:24;3.10;99.90
30134;DHT22;16946;49.984;10.672;2023-12-07T00:37:57;3.10;99.90
30134;DHT22;16946;49.984;10.672;2023-12-07T00:38:27;3.20;99.90
30134;DHT22;16946;49.984;10.672;2023-12-07T00:38:58;3.20;99.90
30134;DHT22;16946;49.984;10.672;2023-12-07T00:39:28;3.20;99.90
30134;DHT22;16946;49.984;10.672;2023-12-07T00:39:59;3.20;99.90
30134;DHT22;16946;49.984;10.672;2023-12-07T00:40:29;3.10;99.90
30134;DHT22;16946;49.984;10.672;2023-12-07T00:41:00;3.10;99.90
30134;DHT22;16946;49.984;10.672;2023-12-07T00:41:30;3.10;99.90
30134;DHT22;16946;49.984;10.672;2023-12-07T00:42:01;3.10;99.90
30134;DHT22;16946;49.984;10.672;2023-12-07T00:42:32;3.10;99.90
30134;DHT22;16946;49.984;10.672;2023-12-07T00:43:02;3.10;99.90
30134;DHT22;16946;49.984;10.672;2023-12-07T00:43:34;3.10;99.90
30134;DHT22;16946;49.984;10.672;2023-12-07T00:44:04;3.00;99.90
30134;DHT22;16946;49.984;10.672;2023-12-07T00:44:40;3.00;99.90
30134;DHT22;16946;49.984;10.672;2023-12-07T00:45:12;2.90;99.90
30134;DHT22;16946;49.984;10.672;2023-12-07T00:45:42;2.90;99.90
30134;DHT22;16946;49.984;10.672;2023-12-07T00:46:13;2.90;99.90
30134;DHT22;16946;49.984;10.672;2023-12-07T00:46:44;2.90;99.90
30134;DHT22;16946;49.984;10.672;2023-12-07T00:47:14;2.90;99.90
30134;DHT22;16946;49.984;10.672;2023-12-07T00:47:45;2.90;99.90
30134;DHT22;16946;49.984;10.672;2023-12-07T00:48:15;2.90;99.90
30134;DHT22;16946;49.984;10.672;2023-12-07T00:48:46;2.90;99.90
30134;DHT22;16946;49.984;10.672;2023-12-07T00:49:16;2.90;99.90
30134;DHT22;16946;49.984;10.672;2023-12-07T00:49:47;2.90;99.90
30134;DHT22;16946;49.984;10.672;2023-12-07T00:50:18;2.90;99.90
30134;DHT22;16946;49.984;10.672;2023-12-07T00:50:48;2.80;99.90
30134;DHT22;16946;49.984;10.672;2023-12-07T00:51:19;2.80;99.90
30134;DHT22;16946;49.984;10.672;2023-12-07T00:51:49;2.80;99.90
30134;DHT22;16946;49.984;10.672;2023-12-07T00:52:20;2.80;99.90
30134;DHT22;16946;49.984;10.672;2023-12-07T00:52:50;2.80;99.90
30134;DHT22;16946;49.984;10.672;2023-12-07T00:53:21;2.80;99.90
30134;DHT22;16946;49.984;10.672;2023-12-07T00:53:51;2.80;99.90
30134;DHT22;16946;49.984;10.672;2023-12-07T00:54:22;2.80;99.90
30134;DHT22;16946;49.984;10.672;2023-12-07T00:54:53;2.80;99.90
30134;DHT22;16946;49.984;10.672;2023-12-07T00:55:24;2.80;99.90
30134;DHT22;16946;49.984;10.672;2023-12-07T00:55:54;2.80;99.90
30134;DHT22;16946;49.984;10.672;2023-12-07T00:56:25;2.80;99.90
30134;DHT22;16946;49.984;10.672;2023-12-07T00:56:55;2.80;99.90
30134;DHT22;16946;49.984;10.672;2023-12-07T00:57:26;2.90;99.90
30134;DHT22;16946;49.984;10.672;2023-12-07T00:57:56;2.90;99.90
30134;DHT22;16946;49.984;10.672;2023-12-07T00:58:27;3.00;99.90
30134;DHT22;16946;49.984;10.672;2023-12-07T00:58:57;3.10;99.90
30134;DHT22;16946;49.984;10.672;2023-12-07T00:59:28;3.10;99.90
30134;DHT22;16946;49.984;10.672;2023-12-07T01:00:04;3.20;99.90
30134;DHT22;16946;49.984;10.672;2023-12-07T01:00:36;3.30;99.90
30134;DHT22;16946;49.984;10.672;2023-12-07T01:01:07;3.30;99.90
30134;DHT22;16946;49.984;10.672;2023-12-07T01:01:38;3.20;99.90
30134;DHT22;16946;49.984;10.672;2023-12-07T01:02:09;3.20;99.90
30134;DHT22;16946;49.984;10.672;2023-12-07T01:02:39;3.20;99.90
30134;DHT22;16946;49.984;10.672;2023-12-07T01:03:10;3.20;99.90
30134;DHT22;16946;49.984;10.672;2023-12-07T01:03:41;3.20;99.90
30134;DHT22;16946;49.984;10.672;2023-12-07T01:04:11;3.20;99.90
30134;DHT22;16946;49.984;10.672;2023-12-07T01:04:42;3.20;99.90
30134;DHT22;16946;49.984;10.672;2023-12-07T01:05:12;3.10;99.90
30134;DHT22;16946;49.984;10.672;2023-12-07T01:05:43;3.10;99.90
30134;DHT22;16946;49.984;10.672;2023-12-07T01:06:13;3.10;99.90
30134;DHT22;16946;49.984;10.672;2023-12-07T01:06:44;3.00;99.90
30134;DHT22;16946;49.984;10.672;2023-12-07T01:07:15;3.00;99.90
30134;DHT22;16946;49.984;10.672;2023-12-07T01:07:45;3.00;99.90
30134;DHT22;16946;49.984;10.672;2023-12-07T01:08:16;3.00;99.90
30134;DHT22;16946;49.984;10.672;2023-12-07T01:08:46;3.00;99.90
30134;DHT22;16946;49.984;10.672;2023-12-07T01:09:17;2.90;99.90
30134;DHT22;16946;49.984;10.672;2023-12-07T01:09:47;2.90;99.90
30134;DHT22;16946;49.984;10.672;2023-12-07T01:10:18;2.90;99.90
30134;DHT22;16946;49.984;10.672;2023-12-07T01:10:49;2.80;99.90
30134;DHT22;16946;49.984;10.672;2023-12-07T01:11:19;2.80;99.90
30134;DHT22;16946;49.984;10.672;2023-12-07T01:11:50;2.70;99.90
30134;DHT22;16946;49.984;10.672;2023-12-07T01:12:21;2.70;99.90
30134;DHT22;16946;49.984;10.672;2023-12-07T01:12:52;2.60;99.90
30134;DHT22;16946;49.984;10.672;2023-12-07T01:13:22;2.60;99.90
30134;DHT22;16946;49.984;10.672;2023-12-07T01:13:54;2.60;99.90
30134;DHT22;16946;49.984;10.672;2023-12-07T01:14:24;2.60;99.90
30134;DHT22;16946;49.984;10.672;2023-12-07T01:14:55;2.50;99.90
30134;DHT22;16946;49.984;10.672;2023-12-07T01:15:26;2.50;99.90
30134;DHT22;16946;49.984;10.672;2023-12-07T01:15:57;2.50;99.90
30134;DHT22;16946;49.984;10.672;2023-12-07T01:16:27;2.50;99.90
30134;DHT22;16946;49.984;10.672;2023-12-07T01:16:58;2.40;99.90
30134;DHT22;16946;49.984;10.672;2023-12-07T01:17:28;2.40;99.90
30134;DHT22;16946;49.984;10.672;2023-12-07T01:17:59;2.40;99.90
30134;DHT22;16946;49.984;10.672;2023-12-07T01:18:29;2.50;99.90
30134;DHT22;16946;49.984;10.672;2023-12-07T01:18:59;2.50;99.90
30134;DHT22;16946;49.984;10.672;2023-12-07T01:19:30;2.50;99.90
30134;DHT22;16946;49.984;10.672;2023-12-07T01:20:00;2.50;99.90
30134;DHT22;16946;49.984;10.672;2023-12-07T01:20:34;2.50;99.90
30134;DHT22;16946;49.984;10.672;2023-12-07T01:21:04;2.50;99.90
30134;DHT22;16946;49.984;10.672;2023-12-07T01:21:35;2.50;99.90
30134;DHT22;16946;49.984;10.672;2023-12-07T01:22:05;2.50;99.90
30134;DHT22;16946;49.984;10.672;2023-12-07T01:22:36;2.50;99.90
30134;DHT22;16946;49.984;10.672;2023-12-07T01:23:06;2.50;99.90
30134;DHT22;16946;49.984;10.672;2023-12-07T01:23:37;2.50;99.90
30134;DHT22;16946;49.984;10.672;2023-12-07T01:24:08;2.40;99.90
30134;DHT22;16946;49.984;10.672;2023-12-07T01:24:39;2.50;99.90
30134;DHT22;16946;49.984;10.672;2023-12-07T01:25:09;2.50;99.90
30134;DHT22;16946;49.984;10.672;2023-12-07T01:25:40;2.50;99.90
30134;DHT22;16946;49.984;10.672;2023-12-07T01:26:10;2.50;99.90
30134;DHT22;16946;49.984;10.672;2023-12-07T01:26:41;2.50;99.90
30134;DHT22;16946;49.984;10.672;2023-12-07T01:27:11;2.50;99.90
30134;DHT22;16946;49.984;10.672;2023-12-07T01:27:42;2.50;99.90
30134;DHT22;16946;49.984;10.672;2023-12-07T01:28:12;2.50;99.90
30134;DHT22;16946;49.984;10.672;2023-12-07T01:28:43;2.40;99.90
30134;DHT22;16946;49.984;10.672;2023-12-07T01:29:13;2.40;99.90
30134;DHT22;16946;49.984;10.672;2023-12-07T01:29:44;2.40;99.90
30134;DHT22;16946;49.984;10.672;2023-12-07T01:30:14;2.40;99.90
30134;DHT22;16946;49.984;10.672;2023-12-07T01:30:45;2.40;99.90
30134;DHT22;16946;49.984;10.672;2023-12-07T01:31:15;2.40;99.90
30134;DHT22;16946;49.984;10.672;2023-12-07T01:31:47;2.30;99.90
30134;DHT22;16946;49.984;10.672;2023-12-07T01:32:17;2.30;99.90
30134;DHT22;16946;49.984;10.672;2023-12-07T01:32:48;2.30;99.90
30134;DHT22;16946;49.984;10.672;2023-12-07T01:33:19;2.30;99.90
30134;DHT22;16946;49.984;10.672;2023-12-07T01:33:49;2.40;99.90
30134;DHT22;16946;49.984;10.672;2023-12-07T01:34:20;2.40;99.90
30134;DHT22;16946;49.984;10.672;2023-12-07T01:34:50;2.40;99.90
30134;DHT22;16946;49.984;10.672;2023-12-07T01:35:21;2.40;99.90
30134;DHT22;16946;49.984;10.672;2023-12-07T01:35:51;2.50;99.90
30134;DHT22;16946;49.984;10.672;2023-12-07T01:36:22;2.50;99.90
30134;DHT22;16946;49.984;10.672;2023-12-07T01:36:52;2.50;99.90
30134;DHT22;16946;49.984;10.672;2023-12-07T01:37:23;2.60;99.90
30134;DHT22;16946;49.984;10.672;2023-12-07T01:37:54;2.60;99.90
30134;DHT22;16946;49.984;10.672;2023-12-07T01:38:25;2.60;99.90
30134;DHT22;16946;49.984;10.672;2023-12-07T01:38:55;2.60;99.90
30134;DHT22;16946;49.984;10.672;2023-12-07T01:39:26;2.60;99.90
30134;DHT22;16946;49.984;10.672;2023-12-07T01:39:57;2.60;99.90
30134;DHT22;16946;49.984;10.672;2023-12-07T01:40:28;2.60;99.90
30134;DHT22;16946;49.984;10.672;2023-12-07T01:40:58;2.60;99.90
30134;DHT22;16946;49.984;10.672;2023-12-07T01:41:29;2.60;99.90
30134;DHT22;16946;49.984;10.672;2023-12-07T01:41:59;2.60;99.90
30134;DHT22;16946;49.984;10.672;2023-12-07T01:42:30;2.70;99.90
30134;DHT22;16946;49.984;10.672;2023-12-07T01:43:00;2.70;99.90
30134;DHT22;16946;49.984;10.672;2023-12-07T01:43:31;2.80;99.90
30134;DHT22;16946;49.984;10.672;2023-12-07T01:44:01;2.80;99.90
30134;DHT22;16946;49.984;10.672;2023-12-07T01:44:32;2.80;99.90
30134;DHT22;16946;49.984;10.672;2023-12-07T01:45:07;2.90;99.90
30134;DHT22;16946;49.984;10.672;2023-12-07T01:45:37;2.90;99.90
30134;DHT22;16946;49.984;10.672;2023-12-07T01:46:08;2.90;99.90
30134;DHT22;16946;49.984;10.672;2023-12-07T01:46:38;2.90;99.90
30134;DHT22;16946;49.984;10.672;2023-12-07T01:47:09;2.90;99.90
30134;DHT22;16946;49.984;10.672;2023-12-07T01:47:41;2.90;99.90
30134;DHT22;16946;49.984;10.672;2023-12-07T01:48:11;2.90;99.90
30134;DHT22;16946;49.984;10.672;2023-12-07T01:48:43;2.90;99.90
30134;DHT22;16946;49.984;10.672;2023-12-07T01:49:14;2.90;99.90
30134;DHT22;16946;49.984;10.672;2023-12-07T01:49:44;2.80;99.90
30134;DHT22;16946;49.984;10.672;2023-12-07T01:50:15;2.90;99.90
30134;DHT22;16946;49.984;10.672;2023-12-07T01:50:46;2.90;99.90
30134;DHT22;16946;49.984;10.672;2023-12-07T01:51:18;2.90;99.90
30134;DHT22;16946;49.984;10.672;2023-12-07T01:51:49;2.90;99.90
30134;DHT22;16946;49.984;10.672;2023-12-07T01:52:20;2.80;99.90
30134;DHT22;16946;49.984;10.672;2023-12-07T01:52:57;2.90;99.90
30134;DHT22;16946;49.984;10.672;2023-12-07T01:53:29;2.80;99.90
30134;DHT22;16946;49.984;10.672;2023-12-07T01:54:00;2.90;99.90
30134;DHT22;16946;49.984;10.672;2023-12-07T01:54:31;2.90;99.90
30134;DHT22;16946;49.984;10.672;2023-12-07T01:55:02;2.80;99.90
30134;DHT22;16946;49.984;10.672;2023-12-07T01:55:33;2.80;99.90
30134;DHT22;16946;49.984;10.672;2023-12-07T01:56:05;2.80;99.90
30134;DHT22;16946;49.984;10.672;2023-12-07T01:56:37;2.80;99.90
30134;DHT22;16946;49.984;10.672;2023-12-07T01:57:08;2.80;99.90
30134;DHT22;16946;49.984;10.672;2023-12-07T01:57:38;2.80;99.90
30134;DHT22;16946;49.984;10.672;2023-12-07T01:58:10;2.80;99.90
30134;DHT22;16946;49.984;10.672;2023-12-07T01:58:40;2.80;99.90
30134;DHT22;16946;49.984;10.672;2023-12-07T01:59:11;2.80;99.90
30134;DHT22;16946;49.984;10.672;2023-12-07T01:59:42;2.80;99.90
30134;DHT22;16946;49.984;10.672;2023-12-07T02:00:13;2.80;99.90
30134;DHT22;16946;49.984;10.672;2023-12-07T02:00:44;2.80;99.90
30134;DHT22;16946;49.984;10.672;2023-12-07T02:01:15;2.80;99.90
30134;DHT22;16946;49.984;10.672;2023-12-07T02:01:46;2.80;99.90
30134;DHT22;16946;49.984;10.672;2023-12-07T02:02:16;2.80;99.90
30134;DHT22;16946;49.984;10.672;2023-12-07T02:02:47;2.80;99.90
30134;DHT22;16946;49.984;10.672;2023-12-07T02:03:19;2.80;99.90
30134;DHT22;16946;49.984;10.672;2023-12-07T02:03:50;2.80;99.90
30134;DHT22;16946;49.984;10.672;2023-12-07T02:04:21;2.80;99.90
30134;DHT22;16946;49.984;10.672;2023-12-07T02:04:51;2.80;99.90
30134;DHT22;16946;49.984;10.672;2023-12-07T02:05:22;2.80;99.90
30134;DHT22;16946;49.984;10.672;2023-12-07T02:05:54;2.80;99.90
30134;DHT22;16946;49.984;10.672;2023-12-07T02:06:25;2.80;99.90
30134;DHT22;16946;49.984;10.672;2023-12-07T02:06:57;2.80;99.90
30134;DHT22;16946;49.984;10.672;2023-12-07T02:07:30;2.90;99.90
30134;DHT22;16946;49.984;10.672;2023-12-07T02:08:01;2.90;99.90
30134;DHT22;16946;49.984;10.672;2023-12-07T02:08:31;2.90;99.90
30134;DHT22;16946;49.984;10.672;2023-12-07T02:09:02;2.90;99.90
30134;DHT22;16946;49.984;10.672;2023-12-07T02:09:33;2.90;99.90
30134;DHT22;16946;49.984;10.672;2023-12-07T02:10:04;2.90;99.90
30134;DHT22;16946;49.984;10.672;2023-12-07T02:10:34;2.90;99.90
30134;DHT22;16946;49.984;10.672;2023-12-07T02:11:05;2.90;99.90
30134;DHT22;16946;49.984;10.672;2023-12-07T02:11:36;2.90;99.90
30134;DHT22;16946;49.984;10.672;2023-12-07T02:12:06;2.90;99.90
30134;DHT22;16946;49.984;10.672;2023-12-07T02:12:37;2.90;99.90
30134;DHT22;16946;49.984;10.672;2023-12-07T02:13:08;2.90;99.90
30134;DHT22;16946;49.984;10.672;2023-12-07T02:13:40;2.90;99.90
30134;DHT22;16946;49.984;10.672;2023-12-07T02:14:11;2.90;99.90
30134;DHT22;16946;49.984;10.672;2023-12-07T02:14:42;2.90;99.90
30134;DHT22;16946;49.984;10.672;2023-12-07T02:15:13;2.80;99.90
30134;DHT22;16946;49.984;10.672;2023-12-07T02:15:44;2.80;99.90
30134;DHT22;16946;49.984;10.672;2023-12-07T02:16:27;2.80;99.90
30134;DHT22;16946;49.984;10.672;2023-12-07T02:18:32;2.70;99.90
30134;DHT22;16946;49.984;10.672;2023-12-07T02:19:43;2.60;99.90
30134;DHT22;16946;49.984;10.672;2023-12-07T02:20:37;2.50;99.90
30134;DHT22;16946;49.984;10.672;2023-12-07T02:21:28;2.50;99.90
30134;DHT22;16946;49.984;10.672;2023-12-07T02:22:04;2.50;99.90
30134;DHT22;16946;49.984;10.672;2023-12-07T02:22:42;2.60;99.90
30134;DHT22;16946;49.984;10.672;2023-12-07T02:23:15;2.50;99.90
30134;DHT22;16946;49.984;10.672;2023-12-07T02:23:50;2.50;99.90
30134;DHT22;16946;49.984;10.672;2023-12-07T02:24:22;2.50;99.90
30134;DHT22;16946;49.984;10.672;2023-12-07T02:25:05;2.50;99.90
30134;DHT22;16946;49.984;10.672;2023-12-07T02:25:51;2.50;99.90
30134;DHT22;16946;49.984;10.672;2023-12-07T02:26:36;2.60;99.90
30134;DHT22;16946;49.984;10.672;2023-12-07T02:27:08;2.50;99.90
30134;DHT22;16946;49.984;10.672;2023-12-07T02:27:40;2.50;99.90
30134;DHT22;16946;49.984;10.672;2023-12-07T02:28:11;2.50;99.90
30134;DHT22;16946;49.984;10.672;2023-12-07T02:28:42;2.50;99.90
30134;DHT22;16946;49.984;10.672;2023-12-07T02:29:12;2.50;99.90
30134;DHT22;16946;49.984;10.672;2023-12-07T02:29:43;2.60;99.90
30134;DHT22;16946;49.984;10.672;2023-12-07T02:30:14;2.60;99.90
30134;DHT22;16946;49.984;10.672;2023-12-07T02:30:45;2.60;99.90
30134;DHT22;16946;49.984;10.672;2023-12-07T02:31:15;2.70;99.90
30134;DHT22;16946;49.984;10.672;2023-12-07T02:31:46;2.70;99.90
30134;DHT22;16946;49.984;10.672;2023-12-07T02:32:16;2.70;99.90
30134;DHT22;16946;49.984;10.672;2023-12-07T02:32:47;2.60;99.90
30134;DHT22;16946;49.984;10.672;2023-12-07T02:33:18;2.60;99.90
30134;DHT22;16946;49.984;10.672;2023-12-07T02:33:48;2.50;99.90
30134;DHT22;16946;49.984;10.672;2023-12-07T02:34:19;2.50;99.90
30134;DHT22;16946;49.984;10.672;2023-12-07T02:34:50;2.50;99.90
30134;DHT22;16946;49.984;10.672;2023-12-07T02:35:21;2.50;99.90
30134;DHT22;16946;49.984;10.672;2023-12-07T02:35:51;2.50;99.90
30134;DHT22;16946;49.984;10.672;2023-12-07T02:36:24;2.50;99.90
30134;DHT22;16946;49.984;10.672;2023-12-07T02:36:58;2.40;99.90
30134;DHT22;16946;49.984;10.672;2023-12-07T02:37:37;2.40;99.90
30134;DHT22;16946;49.984;10.672;2023-12-07T02:38:09;2.30;99.90
30134;DHT22;16946;49.984;10.672;2023-12-07T02:38:41;2.30;99.90
30134;DHT22;16946;49.984;10.672;2023-12-07T02:39:12;2.40;99.90
30134;DHT22;16946;49.984;10.672;2023-12-07T02:39:44;2.40;99.90
30134;DHT22;16946;49.984;10.672;2023-12-07T02:40:22;2.30;99.90
30134;DHT22;16946;49.984;10.672;2023-12-07T02:40:55;2.30;99.90
30134;DHT22;16946;49.984;10.672;2023-12-07T02:41:27;2.30;99.90
30134;DHT22;16946;49.984;10.672;2023-12-07T02:41:58;2.30;99.90
30134;DHT22;16946;49.984;10.672;2023-12-07T02:42:29;2.30;99.90
30134;DHT22;16946;49.984;10.672;2023-12-07T02:43:01;2.40;99.90
30134;DHT22;16946;49.984;10.672;2023-12-07T02:43:33;2.40;99.90
30134;DHT22;16946;49.984;10.672;2023-12-07T02:44:04;2.40;99.90
30134;DHT22;16946;49.984;10.672;2023-12-07T02:44:35;2.40;99.90
30134;DHT22;16946;49.984;10.672;2023-12-07T02:45:07;2.50;99.90
30134;DHT22;16946;49.984;10.672;2023-12-07T02:45:38;2.40;99.90
30134;DHT22;16946;49.984;10.672;2023-12-07T02:46:09;2.40;99.90
30134;DHT22;16946;49.984;10.672;2023-12-07T02:46:40;2.40;99.90
30134;DHT22;16946;49.984;10.672;2023-12-07T02:47:10;2.30;99.90
30134;DHT22;16946;49.984;10.672;2023-12-07T02:47:41;2.30;99.90
30134;DHT22;16946;49.984;10.672;2023-12-07T02:48:13;2.30;99.90
30134;DHT22;16946;49.984;10.672;2023-12-07T02:48:44;2.30;99.90
30134;DHT22;16946;49.984;10.672;2023-12-07T02:49:15;2.30;99.90
30134;DHT22;16946;49.984;10.672;2023-12-07T02:49:45;2.30;99.90
30134;DHT22;16946;49.984;10.672;2023-12-07T02:50:16;2.30;99.90
30134;DHT22;16946;49.984;10.672;2023-12-07T02:50:46;2.30;99.90
30134;DHT22;16946;49.984;10.672;2023-12-07T02:51:17;2.30;99.90
30134;DHT22;16946;49.984;10.672;2023-12-07T02:51:48;2.30;99.90
30134;DHT22;16946;49.984;10.672;2023-12-07T02:52:18;2.30;99.90
30134;DHT22;16946;49.984;10.672;2023-12-07T02:52:49;2.40;99.90
30134;DHT22;16946;49.984;10.672;2023-12-07T02:53:20;2.40;99.90
30134;DHT22;16946;49.984;10.672;2023-12-07T02:53:50;2.50;99.90
30134;DHT22;16946;49.984;10.672;2023-12-07T02:54:21;2.50;99.90
30134;DHT22;16946;49.984;10.672;2023-12-07T02:54:51;2.60;99.90
30134;DHT22;16946;49.984;10.672;2023-12-07T02:55:22;2.50;99.90
30134;DHT22;16946;49.984;10.672;2023-12-07T02:55:53;2.50;99.90
30134;DHT22;16946;49.984;10.672;2023-12-07T02:56:23;2.50;99.90
30134;DHT22;16946;49.984;10.672;2023-12-07T02:56:54;2.50;99.90
30134;DHT22;16946;49.984;10.672;2023-12-07T02:57:24;2.50;99.90
30134;DHT22;16946;49.984;10.672;2023-12-07T02:57:55;2.40;99.90
30134;DHT22;16946;49.984;10.672;2023-12-07T02:58:25;2.40;99.90
30134;DHT22;16946;49.984;10.672;2023-12-07T02:58:56;2.40;99.90
30134;DHT22;16946;49.984;10.672;2023-12-07T02:59:26;2.40;99.90
30134;DHT22;16946;49.984;10.672;2023-12-07T02:59:57;2.30;99.90
30134;DHT22;16946;49.984;10.672;2023-12-07T03:00:27;2.30;99.90
30134;DHT22;16946;49.984;10.672;2023-12-07T03:00:58;2.30;99.90
30134;DHT22;16946;49.984;10.672;2023-12-07T03:01:29;2.20;99.90
30134;DHT22;16946;49.984;10.672;2023-12-07T03:02:00;2.20;99.90
30134;DHT22;16946;49.984;10.672;2023-12-07T03:02:30;2.20;99.90
30134;DHT22;16946;49.984;10.672;2023-12-07T03:03:01;2.20;99.90
30134;DHT22;16946;49.984;10.672;2023-12-07T03:03:31;2.10;99.90
30134;DHT22;16946;49.984;10.672;2023-12-07T03:04:02;2.10;99.90
30134;DHT22;16946;49.984;10.672;2023-12-07T03:04:32;2.10;99.90
30134;DHT22;16946;49.984;10.672;2023-12-07T03:05:03;2.10;99.90
30134;DHT22;16946;49.984;10.672;2023-12-07T03:05:34;2.10;99.90
30134;DHT22;16946;49.984;10.672;2023-12-07T03:06:05;2.10;99.90
30134;DHT22;16946;49.984;10.672;2023-12-07T03:06:35;2.10;99.90
30134;DHT22;16946;49.984;10.672;2023-12-07T03:07:06;2.20;99.90
30134;DHT22;16946;49.984;10.672;2023-12-07T03:07:36;2.10;99.90
30134;DHT22;16946;49.984;10.672;2023-12-07T03:08:07;2.20;99.90
30134;DHT22;16946;49.984;10.672;2023-12-07T03:08:37;2.20;99.90
30134;DHT22;16946;49.984;10.672;2023-12-07T03:09:09;2.30;99.90
30134;DHT22;16946;49.984;10.672;2023-12-07T03:09:39;2.30;99.90
30134;DHT22;16946;49.984;10.672;2023-12-07T03:10:10;2.30;99.90
30134;DHT22;16946;49.984;10.672;2023-12-07T03:10:40;2.40;99.90
30134;DHT22;16946;49.984;10.672;2023-12-07T03:11:11;2.40;99.90
30134;DHT22;16946;49.984;10.672;2023-12-07T03:11:41;2.40;99.90
30134;DHT22;16946;49.984;10.672;2023-12-07T03:12:12;2.40;99.90
30134;DHT22;16946;49.984;10.672;2023-12-07T03:12:42;2.40;99.90
30134;DHT22;16946;49.984;10.672;2023-12-07T03:13:13;2.40;99.90
30134;DHT22;16946;49.984;10.672;2023-12-07T03:13:43;2.30;99.90
30134;DHT22;16946;49.984;10.672;2023-12-07T03:14:14;2.40;99.90
30134;DHT22;16946;49.984;10.672;2023-12-07T03:14:44;2.30;99.90
30134;DHT22;16946;49.984;10.672;2023-12-07T03:15:15;2.30;99.90
30134;DHT22;16946;49.984;10.672;2023-12-07T03:15:45;2.30;99.90
30134;DHT22;16946;49.984;10.672;2023-12-07T03:16:16;2.30;99.90
30134;DHT22;16946;49.984;10.672;2023-12-07T03:16:46;2.30;99.90
30134;DHT22;16946;49.984;10.672;2023-12-07T03:17:17;2.30;99.90
30134;DHT22;16946;49.984;10.672;2023-12-07T03:17:49;2.30;99.90
30134;DHT22;16946;49.984;10.672;2023-12-07T03:18:20;2.30;99.90
30134;DHT22;16946;49.984;10.672;2023-12-07T03:18:50;2.30;99.90